Observation Tools

Eastern redbud Photo courtesy of Steve Baskauf, Vanderbilt University, bioimages.vanderbilt.edu.

Eastern redbud (Cercis canadensis)


Plant Family: Pea (Fabaceae)
Project BudBurst Plant Group: Deciduous Trees and Shrubs

Identification Hints: Eastern redbuds are small trees or large shrubs found throughout the eastern United States. A redbudcan grow up to 30 feet tall. The leaves of the Eastern redbud are distinctly heart-shaped and softlooking. The flowers are very showy and come in various shades of magenta. The flowers emerge before the leaves in the spring. Eastern redbuds are often encountered as landscape plants but also in southernforests as understory plants.

Did you Know? Eastern redbud fruits are bean-shaped flat, green pods, approximately 3.5 inches long, which change to a brown color when mature. The seed pods generally contain 4-10 small, hard brownish colored seeds. In wild populations, you might find Eastern redbud trees to be more numerous on south-facing slopes because they receive more sunlight.


Live Map for Eastern redbud

Other years available for viewing:

Below you can view all observations that have been reported in for Eastern redbud (If the map below is empty then there have not been any observations reported.)

Use the navigation buttons on the left to zoom in/out and pan around. Click on each place marker to get detail information about that observation.

Leaf/Needles/Stalk = Leaf/Needles/Stalk Flower = Flower Pollen = Pollen Fruiting = Fruiting Color = Color

--Back to Top--

close help window button

The table below displays all the data that has been submitted to Project BudBurst. By default, the data is sorted by the date on which the phenophase occurred. Clicking the up and down arrows next to each column name allows you to sort on any value. If there have been more than 10 observations submitted, you can choose how many to display at a time using the "Show __ entries" control. You can also page through the data using the previous and next buttons at the bottom right of the table.

The Search box allows you to search all of the data. Searching by date, species, phenophase, etc. is easy—just start typing and the table will immediately change to contain only observations that contain your search phrase. Do you want to see only 2012 observations? Just type "2012" in the search box. Only want to see maples? Enter "Acer." You can combine searches, too! Searching for "acer 2012" will narrow your results to only the maples that were observed in 2012 (assuming that any observations exist, of course).

Once you have your results in the order desired, you can use any of the buttons above the search box to copy the results to the clipboard; save them as a text, or spreadsheet; or even print them from your browser!

Observational data for Eastern redbud:

help button
Date Contributor Common Name Species Phenophase Latitude Longitude Obs#
Fri Sep 23 00:00:00 GMT 2011 youngkwy@aol.co, Eastern redbud Cercis canadensis Leaves Changing Color (Early) 38.810000000000000 -77.050000000000000 13404
Mon Jan 30 00:00:00 GMT 2012 sonyaguidry@yahoo.com Eastern redbud Cercis canadensis Flowers (Early) 29.042400000000000 -80.939500000000000 14044
Wed Mar 21 00:00:00 GMT 2012 rang Eastern redbud Cercis canadensis Flowers (Early) 39.817200000000000 -76.908800000000000 14368
Fri Mar 23 00:00:00 GMT 2012 lynne Eastern redbud Cercis canadensis Flowers (Early) 43.100000000000000 -88.360000000000000 14429
Sun Apr 08 00:00:00 GMT 2012 lynne Eastern redbud Cercis canadensis Flowers (Middle) 43.100000000000000 -88.360000000000000 14840
Thu Sep 27 00:00:00 GMT 2012 kshasty Eastern redbud Cercis canadensis Leaves Changing Color (Early) 35.640600000000000 -79.870600000000000 16755
Mon Feb 25 00:00:00 GMT 2013 alyvinson Eastern redbud Cercis canadensis Flowers (Early) 29.651600000000000 -82.324800000000000 18073
Tue Mar 26 00:00:00 GMT 2013 allisons Eastern redbud Cercis canadensis Flowers (Early) 37.229600000000000 -80.413900000000000 18330
Wed Mar 27 00:00:00 GMT 2013 melanied Eastern redbud Cercis canadensis First Flower 34.149400000000000 -77.920900000000000 18487
Thu Apr 04 00:00:00 GMT 2013 melanied Eastern redbud Cercis canadensis Full Flower 34.149400000000000 -77.920900000000000 18488
Thu Apr 04 00:00:00 GMT 2013 bmccalli Eastern redbud Cercis canadensis Bud Burst 39.164600000000000 -86.514800000000000 18552
Wed Mar 27 00:00:00 GMT 2013 bmccalli Eastern redbud Cercis canadensis Bud Burst 39.164800000000000 -86.514200000000000 18551
Fri Mar 08 00:00:00 GMT 2013 ahublar7 Eastern redbud Cercis canadensis Bud Burst 39.164200000000000 -86.512100000000000 18541
Tue Mar 26 00:00:00 GMT 2013 opankrat Eastern redbud Cercis canadensis Bud Burst 39.165300000000000 -86.526400000000000 18586
Tue Mar 26 00:00:00 GMT 2013 opankrat Eastern redbud Cercis canadensis Bud Burst 39.165300000000000 -86.526400000000000 18585
Tue Mar 26 00:00:00 GMT 2013 opankrat Eastern redbud Cercis canadensis First Leaf 39.165300000000000 -86.526400000000000 18588
Sat Mar 30 00:00:00 GMT 2013 sebenrot Eastern redbud Cercis canadensis Fruit (Late) 39.168500000000000 -86.507400000000000 18604
Wed Mar 27 00:00:00 GMT 2013 akbiddle Eastern redbud Cercis canadensis Leaves Unfolding (Middle) 39.148900000000000 -86.526900000000000 18613
Fri Apr 05 00:00:00 GMT 2013 AimeeYousey Eastern redbud Cercis canadensis Flowers (Early) 35.226200000000000 -97.435000000000000 18716
Thu Apr 04 00:00:00 GMT 2013 AimeeYousey Eastern redbud Cercis canadensis Flowers (Middle) 35.226200000000000 -97.435000000000000 18762
Thu Apr 11 00:00:00 GMT 2013 ncmns Eastern redbud Cercis canadensis Leaves Unfolding (Early) 35.782800000000000 -78.639300000000000 18794
Wed Apr 10 00:00:00 GMT 2013 Mango55 Eastern redbud Cercis canadensis Bud Burst 40.208200000000000 -76.771900000000000 18781
Thu Apr 11 00:00:00 GMT 2013 adfitzgerald@woodlawnschool.org_Env_Studies_2013_reporter11 Eastern redbud Cercis canadensis Bud Burst 35.543200000000000 -80.847300000000000 18805
Thu Apr 11 00:00:00 GMT 2013 mareseatoats Eastern redbud Cercis canadensis First Flower 38.020100000000000 -78.634400000000000 18858
Sat Apr 13 00:00:00 GMT 2013 patchrenka Eastern redbud Cercis canadensis Flowers (Early) 41.410000000000000 -86.150000000000000 18885
Sat Apr 13 00:00:00 GMT 2013 jerribitner Eastern redbud Cercis canadensis Bud Burst 40.018100000000000 -76.880000000000000 18922
Fri Apr 19 00:00:00 GMT 2013 jerribitner Eastern redbud Cercis canadensis First Leaf 40.018100000000000 -76.880000000000000 19036
Sat Apr 20 00:00:00 GMT 2013 ncmns Eastern redbud Cercis canadensis Leaves Unfolding (Middle) 35.772100000000000 -78.638600000000000 19038
Sat Apr 20 00:00:00 GMT 2013 ncmns Eastern redbud Cercis canadensis Flowers (Late) 35.772100000000000 -78.638600000000000 19039
Sun Apr 21 00:00:00 GMT 2013 Mango55 Eastern redbud Cercis canadensis Full Flower 40.208200000000000 -76.771900000000000 19105
Thu Apr 18 00:00:00 GMT 2013 Mango55 Eastern redbud Cercis canadensis First Flower 40.208200000000000 -76.771900000000000 19104
Thu Apr 18 00:00:00 GMT 2013 nflower Eastern redbud Cercis canadensis Full Flower 40.371500000000000 -75.352100000000000 19121
Thu Apr 25 00:00:00 GMT 2013 PCILBatavia Eastern redbud Cercis canadensis Bud Burst 41.850000000000000 -88.312600000000000 19153
Fri Apr 26 00:00:00 GMT 2013 celiac Eastern redbud Cercis canadensis Bud Burst 41.744000000000000 -74.086000000000000 19207
Sat Apr 13 00:00:00 GMT 2013 ncmns Eastern redbud Cercis canadensis Leaves Unfolding (Early) 35.811700000000000 -78.713900000000000 19371
Sat Mar 30 00:00:00 GMT 2013 ncmns Eastern redbud Cercis canadensis Leaves Unfolding (Early) 35.811700000000000 -78.713900000000000 19364
Sat Apr 20 00:00:00 GMT 2013 ncmns Eastern redbud Cercis canadensis Leaves Unfolding (Middle) 35.782300000000000 -78.639500000000000 19390
Sat Apr 27 00:00:00 GMT 2013 ncmns Eastern redbud Cercis canadensis Leaves Unfolding (Late) 35.811700000000000 -78.713900000000000 19381
Thu Apr 11 00:00:00 GMT 2013 LenChenfeld Eastern redbud Cercis canadensis Bud Burst 41.445200000000000 -72.412700000000000 19399
Sun Apr 21 00:00:00 GMT 2013 LenChenfeld Eastern redbud Cercis canadensis First Flower 41.445200000000000 -72.412700000000000 19400
Thu Apr 18 00:00:00 GMT 2013 thelilem Eastern redbud Cercis canadensis Bud Burst 41.747100000000000 -72.690400000000000 19499
Tue Apr 23 00:00:00 GMT 2013 thelilem Eastern redbud Cercis canadensis First Leaf 41.747100000000000 -72.690400000000000 19500
Sun Apr 21 00:00:00 GMT 2013 jerribitner Eastern redbud Cercis canadensis Full Flower 40.018100000000000 -76.880000000000000 19719
Fri Apr 26 00:00:00 GMT 2013 SchoppFamily Eastern redbud Cercis canadensis Bud Burst 40.808100000000000 -89.622900000000000 19740
Sat Apr 27 00:00:00 GMT 2013 SchoppFamily Eastern redbud Cercis canadensis First Flower 40.808100000000000 -89.622900000000000 19741
Sat May 04 00:00:00 GMT 2013 SchoppFamily Eastern redbud Cercis canadensis Full Flower 40.808100000000000 -89.622900000000000 19742
Sun Apr 14 00:00:00 GMT 2013 jls1107 Eastern redbud Cercis canadensis Bud Burst 41.000000000000000 -72.000000000000000 19818
Thu Apr 18 00:00:00 GMT 2013 jls1107 Eastern redbud Cercis canadensis First Leaf 41.000000000000000 -72.000000000000000 19819
Sun Apr 21 00:00:00 GMT 2013 jls1107 Eastern redbud Cercis canadensis All Leaves Unfolded 41.000000000000000 -72.000000000000000 19820
Wed May 01 00:00:00 GMT 2013 jls1107 Eastern redbud Cercis canadensis First Flower 41.000000000000000 -72.000000000000000 19821
Mon May 06 00:00:00 GMT 2013 SchoppFamily Eastern redbud Cercis canadensis First Leaf 40.808100000000000 -89.622900000000000 19933
Wed May 01 00:00:00 GMT 2013 Mango55 Eastern redbud Cercis canadensis First Leaf 40.208200000000000 -76.771900000000000 20009
Mon May 06 00:00:00 GMT 2013 centralNY Eastern redbud Cercis canadensis Full Flower 43.041000000000000 -76.212900000000000 20027
Wed May 08 00:00:00 GMT 2013 celiac Eastern redbud Cercis canadensis Full Flower 41.744000000000000 -74.086000000000000 20346
Sat May 11 00:00:00 GMT 2013 Mango55 Eastern redbud Cercis canadensis All Leaves Unfolded 40.208200000000000 -76.771900000000000 20299
Wed May 15 00:00:00 GMT 2013 allib001 Eastern redbud Cercis canadensis Full Flower 45.053700000000000 -92.812700000000000 20420
Mon May 20 00:00:00 GMT 2013 allib001 Eastern redbud Cercis canadensis First Leaf 45.053700000000000 -92.812700000000000 20610
Wed May 22 00:00:00 GMT 2013 kayrihavens Eastern redbud Cercis canadensis Flowers (Late) 42.145100000000000 -87.786000000000000 20690
Fri May 24 00:00:00 GMT 2013 jerribitner Eastern redbud Cercis canadensis All Leaves Unfolded 40.018100000000000 -76.880000000000000 20723
Fri May 10 00:00:00 GMT 2013 centralNY Eastern redbud Cercis canadensis First Leaf 43.041000000000000 -76.212900000000000 20726
Tue May 14 00:00:00 GMT 2013 centralNY Eastern redbud Cercis canadensis All Leaves Unfolded 43.041000000000000 -76.212900000000000 20727
Fri Mar 22 00:00:00 GMT 2013 Angelyn Eastern redbud Cercis canadensis Bud Burst 35.619100000000000 -82.765100000000000 20747
Wed Apr 17 00:00:00 GMT 2013 Angelyn Eastern redbud Cercis canadensis First Leaf 35.619100000000000 -82.765100000000000 20748
Thu Apr 25 00:00:00 GMT 2013 Angelyn Eastern redbud Cercis canadensis All Leaves Unfolded 35.619100000000000 -82.765100000000000 20749
Thu Apr 11 00:00:00 GMT 2013 Angelyn Eastern redbud Cercis canadensis First Flower 35.619100000000000 -82.765100000000000 20750
Sat Apr 13 00:00:00 GMT 2013 Angelyn Eastern redbud Cercis canadensis Full Flower 35.619100000000000 -82.765100000000000 20751
Fri May 31 00:00:00 GMT 2013 allib001 Eastern redbud Cercis canadensis All Leaves Unfolded 45.053700000000000 -92.812700000000000 20919
Sat May 18 00:00:00 GMT 2013 KatrinaMeehan Eastern redbud Cercis canadensis Full Flower 44.456100000000000 -93.150100000000000 20926
Tue Apr 30 00:00:00 GMT 2013 BeverlyT Eastern redbud Cercis canadensis First Leaf 39.483400000000000 -84.700800000000000 21147
Fri May 17 00:00:00 GMT 2013 BeverlyT Eastern redbud Cercis canadensis All Leaves Unfolded 39.483400000000000 -84.700800000000000 21148
Mon Apr 22 00:00:00 GMT 2013 BeverlyT Eastern redbud Cercis canadensis First Flower 39.483400000000000 -84.700800000000000 21149
Fri Apr 26 00:00:00 GMT 2013 BeverlyT Eastern redbud Cercis canadensis Full Flower 39.483400000000000 -84.700800000000000 21150
Sat Jun 15 00:00:00 GMT 2013 KatrinaMeehan Eastern redbud Cercis canadensis All Leaves Unfolded 44.456100000000000 -93.150100000000000 21524
Tue Sep 10 00:00:00 GMT 2013 usbg Eastern redbud Cercis canadensis Fruit (Middle) 38.888100000000000 -77.012900000000000 22001
Sat Sep 14 00:00:00 GMT 2013 Clebeau Eastern redbud Cercis canadensis Leaves Changing Color (Early) 38.888000000000000 -77.014200000000000 22053
Sat Sep 14 00:00:00 GMT 2013 jocelynbethany Eastern redbud Cercis canadensis Leaves Changing Color (Early) 38.888000000000000 -77.014200000000000 22072
Tue Sep 24 00:00:00 GMT 2013 delgadog Eastern redbud Cercis canadensis Leaves Changing Color (Early) 42.816300000000000 -73.918400000000000 22117
Sat Oct 19 00:00:00 GMT 2013 usbg Eastern redbud Cercis canadensis Leaves Changing Color (Late) 38.888100000000000 -77.012900000000000 22632
Sat Oct 19 00:00:00 GMT 2013 usbg Eastern redbud Cercis canadensis Leaves Changing Color (Middle) 38.888100000000000 -77.012900000000000 22655
Sat Oct 19 00:00:00 GMT 2013 usbg Eastern redbud Cercis canadensis Leaves Changing Color (Early) 38.888100000000000 -77.012900000000000 22641
Sat Oct 19 00:00:00 GMT 2013 usbg Eastern redbud Cercis canadensis Leaves Changing Color (Early) 38.888100000000000 -77.012900000000000 22620
Sun Oct 20 00:00:00 GMT 2013 centralNY Eastern redbud Cercis canadensis Full Fruiting 43.041000000000000 -76.212900000000000 22684
Sun Oct 20 00:00:00 GMT 2013 centralNY Eastern redbud Cercis canadensis 50% Color 43.041000000000000 -76.212900000000000 22685
Fri Oct 18 00:00:00 GMT 2013 nflower Eastern redbud Cercis canadensis 50% Color 40.371500000000000 -75.352100000000000 22671
Sun Oct 20 00:00:00 GMT 2013 Nectarlane Eastern redbud Cercis canadensis 50% Leaf Fall 40.168200000000000 -74.813500000000000 22677
Mon Oct 21 00:00:00 GMT 2013 Budburstastor303 Eastern redbud Cercis canadensis Leaves Changing Color (Early) 42.034000000000000 -87.690800000000000 22721
Sat Oct 26 00:00:00 GMT 2013 centralNY Eastern redbud Cercis canadensis 50% Leaf Fall 43.041000000000000 -76.212900000000000 22798
Mon Oct 28 00:00:00 GMT 2013 hayesj3@central.edu Eastern redbud Cercis canadensis Leaves Changing Color (Late) 41.404600000000000 -92.928600000000000 22815
Sat Nov 02 00:00:00 GMT 2013 usbg Eastern redbud Cercis canadensis Leaves Dropping (Middle) 38.888000000000000 -77.012900000000000 23003
Sat Nov 02 00:00:00 GMT 2013 ncmns Eastern redbud Cercis canadensis Leaves Changing Color (Late) 35.811700000000000 -78.713900000000000 23049
Thu Nov 07 00:00:00 GMT 2013 greendragon Eastern redbud Cercis canadensis 50% Leaf Fall 37.662400000000000 -89.250700000000000 23086
Mon Nov 04 00:00:00 GMT 2013 srserrat Eastern redbud Cercis canadensis 50% Color 39.165500000000000 -86.514300000000000 23578
Sat Nov 09 00:00:00 GMT 2013 srserrat Eastern redbud Cercis canadensis 50% Leaf Fall 39.165500000000000 -86.514300000000000 23579
Mon Oct 07 00:00:00 GMT 2013 srserrat Eastern redbud Cercis canadensis 50% Color 39.165200000000000 -86.512200000000000 23576
Sat Nov 09 00:00:00 GMT 2013 srserrat Eastern redbud Cercis canadensis 50% Leaf Fall 39.165200000000000 -86.512200000000000 23577
Tue Nov 05 00:00:00 GMT 2013 AmyEsparza Eastern redbud Cercis canadensis 50% Color 39.167800000000000 -86.512100000000000 23621
Sun Nov 10 00:00:00 GMT 2013 AmyEsparza Eastern redbud Cercis canadensis 50% Leaf Fall 39.167800000000000 -86.512100000000000 23622
Tue Sep 03 00:00:00 GMT 2013 simonejones Eastern redbud Cercis canadensis Bud Burst 39.170800000000000 -86.512400000000000 23656
Thu Oct 24 00:00:00 GMT 2013 simonejones Eastern redbud Cercis canadensis 50% Color 39.170800000000000 -86.512400000000000 23657
Mon Oct 28 00:00:00 GMT 2013 simonejones Eastern redbud Cercis canadensis 50% Leaf Fall 39.170800000000000 -86.512400000000000 23658
Sat Oct 19 00:00:00 GMT 2013 robinv1_Washington_College_reporter30 Eastern redbud Cercis canadensis 50% Color 39.219200000000000 -76.069600000000000 24185
Mon Nov 18 00:00:00 GMT 2013 robinv1_Washington_College_reporter30 Eastern redbud Cercis canadensis 50% Leaf Fall 39.219200000000000 -76.069600000000000 24186
Mon Jan 18 00:00:00 GMT 2016 LGNatureSchool1 Eastern redbud Cercis canadensis First Leaf 28.102410000000000 -82.451644000000000 61721
Fri Jan 15 00:00:00 GMT 2016 LGNatureSchool1 Eastern redbud Cercis canadensis First Flower 28.102410000000000 -82.451644000000000 61722
Thu Feb 25 00:00:00 GMT 2016 smlarsen Eastern redbud Cercis canadensis Leaves Unfolding (None) 31.513318000000000 -92.469144000000000 62091
Thu Feb 25 00:00:00 GMT 2016 smlarsen Eastern redbud Cercis canadensis Leaves Changing Color (None) 31.513318000000000 -92.469144000000000 62092
Thu Feb 25 00:00:00 GMT 2016 smlarsen Eastern redbud Cercis canadensis Leaves Dropping (None) 31.513318000000000 -92.469144000000000 62093
Thu Feb 25 00:00:00 GMT 2016 smlarsen Eastern redbud Cercis canadensis Flowers (Middle) 31.513318000000000 -92.469144000000000 62094
Thu Feb 25 00:00:00 GMT 2016 smlarsen Eastern redbud Cercis canadensis Fruit (None) 31.513318000000000 -92.469144000000000 62095
Thu Mar 03 00:00:00 GMT 2016 d4thman Eastern redbud Cercis canadensis Bud Burst 36.006750000000000 -96.166880000000000 62281
Thu Mar 10 00:00:00 GMT 2016 d4thman Eastern redbud Cercis canadensis First Flower 36.006750000000000 -96.166880000000000 62432
Sun Mar 06 00:00:00 GMT 2016 Uticabirder Eastern redbud Cercis canadensis Leaves Unfolding (None) 36.137436000000000 -97.016983000000000 62466
Sun Mar 06 00:00:00 GMT 2016 Uticabirder Eastern redbud Cercis canadensis Leaves Changing Color (None) 36.137436000000000 -97.016983000000000 62467
Sun Mar 06 00:00:00 GMT 2016 Uticabirder Eastern redbud Cercis canadensis Leaves Dropping (None) 36.137436000000000 -97.016983000000000 62468
Sun Mar 06 00:00:00 GMT 2016 Uticabirder Eastern redbud Cercis canadensis Flowers (None) 36.137436000000000 -97.016983000000000 62469
Sun Mar 06 00:00:00 GMT 2016 Uticabirder Eastern redbud Cercis canadensis Fruit (None) 36.137436000000000 -97.016983000000000 62470
Sun Mar 13 00:00:00 GMT 2016 Uticabirder Eastern redbud Cercis canadensis Leaves Unfolding (None) 36.137436000000000 -97.016983000000000 62471
Sun Mar 13 00:00:00 GMT 2016 Uticabirder Eastern redbud Cercis canadensis Leaves Changing Color (None) 36.137436000000000 -97.016983000000000 62472
Sun Mar 13 00:00:00 GMT 2016 Uticabirder Eastern redbud Cercis canadensis Leaves Dropping (None) 36.137436000000000 -97.016983000000000 62473
Sun Mar 13 00:00:00 GMT 2016 Uticabirder Eastern redbud Cercis canadensis Flowers (Early) 36.137436000000000 -97.016983000000000 62474
Sun Mar 13 00:00:00 GMT 2016 Uticabirder Eastern redbud Cercis canadensis Fruit (None) 36.137436000000000 -97.016983000000000 62475
Sun Mar 13 00:00:00 GMT 2016 Angelyn Eastern redbud Cercis canadensis Bud Burst 35.619100000000000 -82.765100000000000 62646
Wed Mar 16 00:00:00 GMT 2016 Angelyn Eastern redbud Cercis canadensis First Flower 35.619100000000000 -82.765100000000000 62647
Fri Mar 18 00:00:00 GMT 2016 bthomps1 Eastern redbud Cercis canadensis Bud Burst 38.195980000000000 -85.534280000000000 62672
Tue Mar 15 00:00:00 GMT 2016 d4thman Eastern redbud Cercis canadensis Full Flower 36.006750000000000 -96.166880000000000 62763
Sat Mar 19 00:00:00 GMT 2016 Angelyn Eastern redbud Cercis canadensis Full Flower 35.619100000000000 -82.765100000000000 62764
Sun Mar 20 00:00:00 GMT 2016 O2Factories Eastern redbud Cercis canadensis Leaves Unfolding (Early) 35.896276300000000 -86.410090300000000 62796
Sun Mar 20 00:00:00 GMT 2016 O2Factories Eastern redbud Cercis canadensis Leaves Changing Color (None) 35.896276300000000 -86.410090300000000 62797
Sun Mar 20 00:00:00 GMT 2016 O2Factories Eastern redbud Cercis canadensis Leaves Dropping (None) 35.896276300000000 -86.410090300000000 62798
Sun Mar 20 00:00:00 GMT 2016 O2Factories Eastern redbud Cercis canadensis Flowers (None) 35.896276300000000 -86.410090300000000 62799
Sun Mar 20 00:00:00 GMT 2016 O2Factories Eastern redbud Cercis canadensis Fruit (None) 35.896276300000000 -86.410090300000000 62800
Sun Mar 20 00:00:00 GMT 2016 O2Factories Eastern redbud Cercis canadensis Leaves Unfolding (None) 35.896276300000000 -86.410090300000000 62801
Sun Mar 20 00:00:00 GMT 2016 O2Factories Eastern redbud Cercis canadensis Leaves Changing Color (None) 35.896276300000000 -86.410090300000000 62802
Sun Mar 20 00:00:00 GMT 2016 O2Factories Eastern redbud Cercis canadensis Leaves Dropping (None) 35.896276300000000 -86.410090300000000 62803
Sun Mar 20 00:00:00 GMT 2016 O2Factories Eastern redbud Cercis canadensis Flowers (Middle) 35.896276300000000 -86.410090300000000 62804
Sun Mar 20 00:00:00 GMT 2016 O2Factories Eastern redbud Cercis canadensis Fruit (None) 35.896276300000000 -86.410090300000000 62805
Mon Mar 14 00:00:00 GMT 2016 Lee700 Eastern redbud Cercis canadensis Bud Burst 35.328700000000000 -82.410600000000000 62825
Mon Mar 21 00:00:00 GMT 2016 MNC Eastern redbud Cercis canadensis First Leaf 29.663511000000000 -82.279272000000000 62839
Mon Mar 21 00:00:00 GMT 2016 MNC Eastern redbud Cercis canadensis Full Flower 29.663511000000000 -82.279272000000000 62840
Mon Mar 21 00:00:00 GMT 2016 MNC Eastern redbud Cercis canadensis First Ripe Fruit 29.663511000000000 -82.279272000000000 62841
Sun Mar 27 00:00:00 GMT 2016 d4thman Eastern redbud Cercis canadensis First Leaf 36.006750000000000 -96.166880000000000 63725
Wed Mar 30 00:00:00 GMT 2016 d4thman Eastern redbud Cercis canadensis All Leaves Unfolded 36.006750000000000 -96.166880000000000 63726
Wed Apr 06 00:00:00 GMT 2016 GMUF Eastern redbud Cercis canadensis Leaves Unfolding (Early) 38.835270000000000 -77.309480000000000 63796
Wed Apr 06 00:00:00 GMT 2016 GMUF Eastern redbud Cercis canadensis Leaves Changing Color (None) 38.835270000000000 -77.309480000000000 63797
Wed Apr 06 00:00:00 GMT 2016 GMUF Eastern redbud Cercis canadensis Leaves Dropping (None) 38.835270000000000 -77.309480000000000 63798
Wed Apr 06 00:00:00 GMT 2016 GMUF Eastern redbud Cercis canadensis Flowers (Middle) 38.835270000000000 -77.309480000000000 63799
Wed Apr 06 00:00:00 GMT 2016 GMUF Eastern redbud Cercis canadensis Fruit (None) 38.835270000000000 -77.309480000000000 63800
Sat Apr 02 00:00:00 GMT 2016 Angelyn Eastern redbud Cercis canadensis First Leaf 35.619100000000000 -82.765100000000000 63839
Fri Apr 08 00:00:00 GMT 2016 hmangelsdorf Eastern redbud Cercis canadensis Bud Burst 40.030200000000000 -75.218200000000000 63899
Fri Apr 08 00:00:00 GMT 2016 hmangelsdorf Eastern redbud Cercis canadensis Full Flower 40.030200000000000 -75.218200000000000 63901
Wed Mar 09 00:00:00 GMT 2016 knjarret Eastern redbud Cercis canadensis Bud Burst 39.180160000000000 -86.540760000000000 64219
Wed Mar 23 00:00:00 GMT 2016 knjarret Eastern redbud Cercis canadensis First Leaf 39.180160000000000 -86.540760000000000 64220
Wed Mar 23 00:00:00 GMT 2016 knjarret Eastern redbud Cercis canadensis First Flower 39.180160000000000 -86.540760000000000 64226
Thu Jan 21 00:00:00 GMT 2016 elongbot Eastern redbud Cercis canadensis Bud Burst 39.165330000000000 -86.526390000000000 64316
Thu Apr 07 00:00:00 GMT 2016 elongbot Eastern redbud Cercis canadensis First Flower 39.165330000000000 -86.526390000000000 64317
Thu Jan 21 00:00:00 GMT 2016 elongbot Eastern redbud Cercis canadensis Bud Burst 39.165330000000000 -86.526390000000000 64318
Thu Apr 07 00:00:00 GMT 2016 elongbot Eastern redbud Cercis canadensis First Flower 39.165330000000000 -86.526390000000000 64319
Tue Mar 29 00:00:00 GMT 2016 sydneynelson Eastern redbud Cercis canadensis Bud Burst 39.167575000000000 -86.512730000000000 64320
Fri Apr 01 00:00:00 GMT 2016 sydneynelson Eastern redbud Cercis canadensis First Flower 39.167575000000000 -86.512730000000000 64321
Thu Apr 07 00:00:00 GMT 2016 elongbot Eastern redbud Cercis canadensis First Leaf 39.165330000000000 -86.526390000000000 64323
Thu Apr 07 00:00:00 GMT 2016 elongbots Eastern redbud Cercis canadensis Bud Burst 39.165330000000000 -86.526390000000000 64327
Mon Apr 18 00:00:00 GMT 2016 amydug_Neoga_High_School_Grounds_reporter3 Eastern redbud Cercis canadensis Leaves Unfolding (Early) 39.319510000000000 -88.441970000000000 64757
Mon Apr 18 00:00:00 GMT 2016 amydug_Neoga_High_School_Grounds_reporter3 Eastern redbud Cercis canadensis Leaves Changing Color (None) 39.319510000000000 -88.441970000000000 64758
Mon Apr 18 00:00:00 GMT 2016 amydug_Neoga_High_School_Grounds_reporter3 Eastern redbud Cercis canadensis Leaves Dropping (None) 39.319510000000000 -88.441970000000000 64759
Mon Apr 18 00:00:00 GMT 2016 amydug_Neoga_High_School_Grounds_reporter3 Eastern redbud Cercis canadensis Flowers (Middle) 39.319510000000000 -88.441970000000000 64760
Mon Apr 18 00:00:00 GMT 2016 amydug_Neoga_High_School_Grounds_reporter3 Eastern redbud Cercis canadensis Fruit (None) 39.319510000000000 -88.441970000000000 64761
Fri Apr 15 00:00:00 GMT 2016 leisteda Eastern redbud Cercis canadensis Bud Burst 40.449010000000000 -80.203160000000000 64810
Mon Apr 18 00:00:00 GMT 2016 bthomps1 Eastern redbud Cercis canadensis First Leaf 38.195980000000000 -85.534280000000000 64878
Mon Apr 25 00:00:00 GMT 2016 kxf5231 Eastern redbud Cercis canadensis Leaves Unfolding (Early) 40.291490000000000 -75.219800000000000 65171
Mon Apr 25 00:00:00 GMT 2016 kxf5231 Eastern redbud Cercis canadensis Leaves Changing Color (None) 40.291490000000000 -75.219800000000000 65172
Mon Apr 25 00:00:00 GMT 2016 kxf5231 Eastern redbud Cercis canadensis Leaves Dropping (None) 40.291490000000000 -75.219800000000000 65173
Mon Apr 25 00:00:00 GMT 2016 kxf5231 Eastern redbud Cercis canadensis Flowers (Middle) 40.291490000000000 -75.219800000000000 65174
Mon Apr 25 00:00:00 GMT 2016 kxf5231 Eastern redbud Cercis canadensis Fruit (None) 40.291490000000000 -75.219800000000000 65175
Tue Apr 26 00:00:00 GMT 2016 mrsfrey Eastern redbud Cercis canadensis Bud Burst 41.131790000000000 -73.521880000000000 65465
Tue Apr 26 00:00:00 GMT 2016 mrsfrey Eastern redbud Cercis canadensis First Flower 41.131790000000000 -73.521880000000000 65466
Sat Apr 23 00:00:00 GMT 2016 jrfraney Eastern redbud Cercis canadensis Leaves Unfolding (Late) 39.575709000000000 -95.109168000000000 65553
Sat Apr 23 00:00:00 GMT 2016 jrfraney Eastern redbud Cercis canadensis Leaves Changing Color (None) 39.575709000000000 -95.109168000000000 65554
Sat Apr 23 00:00:00 GMT 2016 jrfraney Eastern redbud Cercis canadensis Leaves Dropping (None) 39.575709000000000 -95.109168000000000 65555
Sat Apr 23 00:00:00 GMT 2016 jrfraney Eastern redbud Cercis canadensis Flowers (Early) 39.575709000000000 -95.109168000000000 65556
Sat Apr 23 00:00:00 GMT 2016 jrfraney Eastern redbud Cercis canadensis Fruit (None) 39.575709000000000 -95.109168000000000 65557
Tue Mar 08 00:00:00 GMT 2016 Abbymck12 Eastern redbud Cercis canadensis Bud Burst 35.533622000000000 -98.705957000000000 65562
Sun Apr 03 00:00:00 GMT 2016 Abbymck12 Eastern redbud Cercis canadensis First Leaf 35.533622000000000 -98.705957000000000 65563
Fri Apr 15 00:00:00 GMT 2016 Abbymck12 Eastern redbud Cercis canadensis All Leaves Unfolded 35.533622000000000 -98.705957000000000 65564
Sun Mar 20 00:00:00 GMT 2016 Abbymck12 Eastern redbud Cercis canadensis First Flower 35.533622000000000 -98.705957000000000 65565
Thu Mar 24 00:00:00 GMT 2016 Abbymck12 Eastern redbud Cercis canadensis Full Flower 35.533622000000000 -98.705957000000000 65566
Tue Mar 08 00:00:00 GMT 2016 alfaabame Eastern redbud Cercis canadensis Bud Burst 35.533553000000000 -98.705635000000000 65567
Sun Apr 03 00:00:00 GMT 2016 alfaabame Eastern redbud Cercis canadensis First Leaf 35.533553000000000 -98.705635000000000 65568
Fri Apr 15 00:00:00 GMT 2016 alfaabame Eastern redbud Cercis canadensis All Leaves Unfolded 35.533553000000000 -98.705635000000000 65569
Sun Mar 20 00:00:00 GMT 2016 alfaabame Eastern redbud Cercis canadensis First Flower 35.533553000000000 -98.705635000000000 65570
Thu Mar 24 00:00:00 GMT 2016 alfaabame Eastern redbud Cercis canadensis Full Flower 35.533553000000000 -98.705635000000000 65571
Thu Apr 28 00:00:00 GMT 2016 tsanchez Eastern redbud Cercis canadensis Leaves Unfolding (Late) 35.533769000000000 -98.706068000000000 65701
Thu Apr 28 00:00:00 GMT 2016 tsanchez Eastern redbud Cercis canadensis Leaves Changing Color (None) 35.533769000000000 -98.706068000000000 65702
Thu Apr 28 00:00:00 GMT 2016 tsanchez Eastern redbud Cercis canadensis Leaves Dropping (None) 35.533769000000000 -98.706068000000000 65703
Thu Apr 28 00:00:00 GMT 2016 tsanchez Eastern redbud Cercis canadensis Flowers (Late) 35.533769000000000 -98.706068000000000 65704
Thu Apr 28 00:00:00 GMT 2016 tsanchez Eastern redbud Cercis canadensis Fruit (Middle) 35.533769000000000 -98.706068000000000 65705
Thu Apr 28 00:00:00 GMT 2016 bthomps1 Eastern redbud Cercis canadensis All Leaves Unfolded 38.195980000000000 -85.534280000000000 65714
Mon Apr 04 00:00:00 GMT 2016 laurob_St._John's_University__reporter5 Eastern redbud Cercis canadensis Bud Burst 40.721400000000000 -73.793200000000000 65735
Wed Apr 20 00:00:00 GMT 2016 laurob_St._John's_University__reporter5 Eastern redbud Cercis canadensis First Leaf 40.721400000000000 -73.793200000000000 65736
Wed Apr 20 00:00:00 GMT 2016 laurob_St._John's_University__reporter5 Eastern redbud Cercis canadensis First Flower 40.721400000000000 -73.793200000000000 65737
Tue Apr 26 00:00:00 GMT 2016 laurob_St._John's_University__reporter5 Eastern redbud Cercis canadensis Full Flower 40.721400000000000 -73.793200000000000 65738
Thu Apr 28 00:00:00 GMT 2016 laurob_St._John's_University__reporter5 Eastern redbud Cercis canadensis Leaves Unfolding (Early) 40.430950000000000 -73.478820000000000 65739
Thu Apr 28 00:00:00 GMT 2016 laurob_St._John's_University__reporter5 Eastern redbud Cercis canadensis Leaves Changing Color (Early) 40.430950000000000 -73.478820000000000 65740
Thu Apr 28 00:00:00 GMT 2016 laurob_St._John's_University__reporter5 Eastern redbud Cercis canadensis Leaves Dropping (None) 40.430950000000000 -73.478820000000000 65741
Thu Apr 28 00:00:00 GMT 2016 laurob_St._John's_University__reporter5 Eastern redbud Cercis canadensis Flowers (Middle) 40.430950000000000 -73.478820000000000 65742
Thu Apr 28 00:00:00 GMT 2016 laurob_St._John's_University__reporter5 Eastern redbud Cercis canadensis Fruit (None) 40.430950000000000 -73.478820000000000 65743
Sun Apr 10 00:00:00 GMT 2016 AnneMarieL9 Eastern redbud Cercis canadensis First Leaf 39.572320000000000 -95.114940000000000 66159
Mon Mar 14 00:00:00 GMT 2016 AnneMarieL9 Eastern redbud Cercis canadensis First Flower 39.572320000000000 -95.114940000000000 66160
Tue May 03 00:00:00 GMT 2016 AnneMarieL9 Eastern redbud Cercis canadensis Leaves Unfolding (Early) 39.575043000000000 -95.110660000000000 66172
Tue May 03 00:00:00 GMT 2016 AnneMarieL9 Eastern redbud Cercis canadensis Leaves Changing Color (None) 39.575043000000000 -95.110660000000000 66173
Tue May 03 00:00:00 GMT 2016 AnneMarieL9 Eastern redbud Cercis canadensis Leaves Dropping (None) 39.575043000000000 -95.110660000000000 66174
Tue May 03 00:00:00 GMT 2016 AnneMarieL9 Eastern redbud Cercis canadensis Flowers (Late) 39.575043000000000 -95.110660000000000 66175
Tue May 03 00:00:00 GMT 2016 AnneMarieL9 Eastern redbud Cercis canadensis Fruit (None) 39.575043000000000 -95.110660000000000 66176
Thu Apr 07 00:00:00 GMT 2016 LalahMcLaughlin Eastern redbud Cercis canadensis Leaves Unfolding (Early) 40.000000000000000 -100.000000000000000 66383
Thu Apr 07 00:00:00 GMT 2016 LalahMcLaughlin Eastern redbud Cercis canadensis Leaves Changing Color (None) 40.000000000000000 -100.000000000000000 66384
Thu Apr 07 00:00:00 GMT 2016 LalahMcLaughlin Eastern redbud Cercis canadensis Leaves Dropping (None) 40.000000000000000 -100.000000000000000 66385
Thu Apr 07 00:00:00 GMT 2016 LalahMcLaughlin Eastern redbud Cercis canadensis Flowers (Early) 40.000000000000000 -100.000000000000000 66386
Thu Apr 07 00:00:00 GMT 2016 LalahMcLaughlin Eastern redbud Cercis canadensis Fruit (Early) 40.000000000000000 -100.000000000000000 66387
Fri Apr 08 00:00:00 GMT 2016 LalahMcLaughlin Eastern redbud Cercis canadensis Leaves Unfolding (Early) 40.000000000000000 -100.000000000000000 66388
Fri Apr 08 00:00:00 GMT 2016 LalahMcLaughlin Eastern redbud Cercis canadensis Leaves Changing Color (None) 40.000000000000000 -100.000000000000000 66389
Fri Apr 08 00:00:00 GMT 2016 LalahMcLaughlin Eastern redbud Cercis canadensis Leaves Dropping (None) 40.000000000000000 -100.000000000000000 66390
Fri Apr 08 00:00:00 GMT 2016 LalahMcLaughlin Eastern redbud Cercis canadensis Flowers (Early) 40.000000000000000 -100.000000000000000 66391
Fri Apr 08 00:00:00 GMT 2016 LalahMcLaughlin Eastern redbud Cercis canadensis Fruit (Early) 40.000000000000000 -100.000000000000000 66392
Mon Apr 11 00:00:00 GMT 2016 LalahMcLaughlin Eastern redbud Cercis canadensis Leaves Unfolding (Middle) 40.000000000000000 -100.000000000000000 66393
Mon Apr 11 00:00:00 GMT 2016 LalahMcLaughlin Eastern redbud Cercis canadensis Leaves Changing Color (None) 40.000000000000000 -100.000000000000000 66394
Mon Apr 11 00:00:00 GMT 2016 LalahMcLaughlin Eastern redbud Cercis canadensis Leaves Dropping (None) 40.000000000000000 -100.000000000000000 66395
Mon Apr 11 00:00:00 GMT 2016 LalahMcLaughlin Eastern redbud Cercis canadensis Flowers (Middle) 40.000000000000000 -100.000000000000000 66396
Mon Apr 11 00:00:00 GMT 2016 LalahMcLaughlin Eastern redbud Cercis canadensis Fruit (Early) 40.000000000000000 -100.000000000000000 66397
Fri Apr 15 00:00:00 GMT 2016 LalahMcLaughlin Eastern redbud Cercis canadensis Leaves Unfolding (Middle) 40.000000000000000 -100.000000000000000 66398
Fri Apr 15 00:00:00 GMT 2016 LalahMcLaughlin Eastern redbud Cercis canadensis Leaves Changing Color (None) 40.000000000000000 -100.000000000000000 66399
Fri Apr 15 00:00:00 GMT 2016 LalahMcLaughlin Eastern redbud Cercis canadensis Leaves Dropping (None) 40.000000000000000 -100.000000000000000 66400
Fri Apr 15 00:00:00 GMT 2016 LalahMcLaughlin Eastern redbud Cercis canadensis Flowers (Middle) 40.000000000000000 -100.000000000000000 66401
Fri Apr 15 00:00:00 GMT 2016 LalahMcLaughlin Eastern redbud Cercis canadensis Fruit (Middle) 40.000000000000000 -100.000000000000000 66402
Sat Apr 16 00:00:00 GMT 2016 LalahMcLaughlin Eastern redbud Cercis canadensis Leaves Unfolding (Middle) 40.000000000000000 -100.000000000000000 66403
Sat Apr 16 00:00:00 GMT 2016 LalahMcLaughlin Eastern redbud Cercis canadensis Leaves Changing Color (None) 40.000000000000000 -100.000000000000000 66404
Sat Apr 16 00:00:00 GMT 2016 LalahMcLaughlin Eastern redbud Cercis canadensis Leaves Dropping (None) 40.000000000000000 -100.000000000000000 66405
Sat Apr 16 00:00:00 GMT 2016 LalahMcLaughlin Eastern redbud Cercis canadensis Flowers (Middle) 40.000000000000000 -100.000000000000000 66406
Sat Apr 16 00:00:00 GMT 2016 LalahMcLaughlin Eastern redbud Cercis canadensis Fruit (Middle) 40.000000000000000 -100.000000000000000 66407
Mon Apr 04 00:00:00 GMT 2016 angelicaleblanc Eastern redbud Cercis canadensis Bud Burst 42.698700000000000 -71.135060000000000 66517
Tue Apr 19 00:00:00 GMT 2016 angelicaleblanc Eastern redbud Cercis canadensis First Leaf 42.698700000000000 -71.135060000000000 66518
Mon Apr 04 00:00:00 GMT 2016 angelicaleblanc Eastern redbud Cercis canadensis First Flower 42.698700000000000 -71.135060000000000 66519
Sun May 08 00:00:00 GMT 2016 angelicaleblanc Eastern redbud Cercis canadensis Full Flower 42.698700000000000 -71.135060000000000 66520
Mon May 09 00:00:00 GMT 2016 kavalowskasm Eastern redbud Cercis canadensis Leaves Unfolding (None) 42.669898000000000 -71.123466000000000 66550
Mon May 09 00:00:00 GMT 2016 kavalowskasm Eastern redbud Cercis canadensis Leaves Changing Color (None) 42.669898000000000 -71.123466000000000 66551
Mon May 09 00:00:00 GMT 2016 kavalowskasm Eastern redbud Cercis canadensis Leaves Dropping (None) 42.669898000000000 -71.123466000000000 66552
Mon May 09 00:00:00 GMT 2016 kavalowskasm Eastern redbud Cercis canadensis Flowers (Early) 42.669898000000000 -71.123466000000000 66553
Mon May 09 00:00:00 GMT 2016 kavalowskasm Eastern redbud Cercis canadensis Fruit (None) 42.669898000000000 -71.123466000000000 66554
Wed May 11 00:00:00 GMT 2016 mrsfrey Eastern redbud Cercis canadensis First Leaf 41.131790000000000 -73.521880000000000 66918
Mon May 02 00:00:00 GMT 2016 martybaker_streamwood_high_school_reporter113 Eastern redbud Cercis canadensis Leaves Unfolding (Early) 42.025580000000000 -88.178410000000000 67515
Mon May 02 00:00:00 GMT 2016 martybaker_streamwood_high_school_reporter113 Eastern redbud Cercis canadensis Leaves Changing Color (Middle) 42.025580000000000 -88.178410000000000 67516
Mon May 02 00:00:00 GMT 2016 martybaker_streamwood_high_school_reporter113 Eastern redbud Cercis canadensis Leaves Dropping (None) 42.025580000000000 -88.178410000000000 67517
Mon May 02 00:00:00 GMT 2016 martybaker_streamwood_high_school_reporter113 Eastern redbud Cercis canadensis Flowers (Middle) 42.025580000000000 -88.178410000000000 67518
Mon May 02 00:00:00 GMT 2016 martybaker_streamwood_high_school_reporter113 Eastern redbud Cercis canadensis Fruit (None) 42.025580000000000 -88.178410000000000 67519
Mon Mar 14 00:00:00 GMT 2016 rainbowtrees Eastern redbud Cercis canadensis Bud Burst 35.577108000000000 -82.585741000000000 68879
Sat Apr 02 00:00:00 GMT 2016 rainbowtrees Eastern redbud Cercis canadensis First Leaf 35.577108000000000 -82.585741000000000 68880
Thu Apr 21 00:00:00 GMT 2016 rainbowtrees Eastern redbud Cercis canadensis All Leaves Unfolded 35.577108000000000 -82.585741000000000 68881
Mon Mar 21 00:00:00 GMT 2016 rainbowtrees Eastern redbud Cercis canadensis First Flower 35.577108000000000 -82.585741000000000 68882
Sat Mar 26 00:00:00 GMT 2016 rainbowtrees Eastern redbud Cercis canadensis Full Flower 35.577108000000000 -82.585741000000000 68883
Mon Mar 14 00:00:00 GMT 2016 rainbowtrees Eastern redbud Cercis canadensis Bud Burst 35.577300000000000 -82.586256000000000 68897
Mon Apr 18 00:00:00 GMT 2016 rainbowtrees Eastern redbud Cercis canadensis First Leaf 35.577300000000000 -82.586256000000000 68898
Sat Apr 30 00:00:00 GMT 2016 rainbowtrees Eastern redbud Cercis canadensis All Leaves Unfolded 35.577300000000000 -82.586256000000000 68899
Sun Mar 27 00:00:00 GMT 2016 rainbowtrees Eastern redbud Cercis canadensis First Flower 35.577300000000000 -82.586256000000000 68900
Wed Mar 30 00:00:00 GMT 2016 rainbowtrees Eastern redbud Cercis canadensis Full Flower 35.577300000000000 -82.586256000000000 68901
Mon Mar 14 00:00:00 GMT 2016 rainbowtrees Eastern redbud Cercis canadensis Bud Burst 35.578051000000000 -82.586251000000000 69257
Sat Apr 02 00:00:00 GMT 2016 rainbowtrees Eastern redbud Cercis canadensis First Leaf 35.578051000000000 -82.586251000000000 69258
Thu Apr 21 00:00:00 GMT 2016 rainbowtrees Eastern redbud Cercis canadensis All Leaves Unfolded 35.578051000000000 -82.586251000000000 69259
Mon Mar 28 00:00:00 GMT 2016 rainbowtrees Eastern redbud Cercis canadensis First Flower 35.578051000000000 -82.586251000000000 69260
Wed Mar 30 00:00:00 GMT 2016 rainbowtrees Eastern redbud Cercis canadensis Full Flower 35.578051000000000 -82.586251000000000 69261
Thu Aug 04 00:00:00 GMT 2016 pacutter Eastern redbud Cercis canadensis All Leaves Unfolded 40.113130000000000 -74.863660000000000 69291
Thu Aug 04 00:00:00 GMT 2016 pacutter Eastern redbud Cercis canadensis Leaves Unfolding (Late) 40.113130000000000 -74.863660000000000 69292
Thu Aug 04 00:00:00 GMT 2016 pacutter Eastern redbud Cercis canadensis Leaves Changing Color (None) 40.113130000000000 -74.863660000000000 69293
Thu Aug 04 00:00:00 GMT 2016 pacutter Eastern redbud Cercis canadensis Leaves Dropping (None) 40.113130000000000 -74.863660000000000 69294
Thu Aug 04 00:00:00 GMT 2016 pacutter Eastern redbud Cercis canadensis Flowers (None) 40.113130000000000 -74.863660000000000 69295
Thu Aug 04 00:00:00 GMT 2016 pacutter Eastern redbud Cercis canadensis Fruit (None) 40.113130000000000 -74.863660000000000 69296
Wed Aug 10 00:00:00 GMT 2016 d4thman Eastern redbud Cercis canadensis First Ripe Fruit 36.006750000000000 -96.166880000000000 69441
Mon Aug 22 00:00:00 GMT 2016 quincystiles Eastern redbud Cercis canadensis Leaves Unfolding (Late) 28.074090000000000 -82.520890000000000 69768
Mon Aug 22 00:00:00 GMT 2016 quincystiles Eastern redbud Cercis canadensis Leaves Changing Color (None) 28.074090000000000 -82.520890000000000 69769
Mon Aug 22 00:00:00 GMT 2016 quincystiles Eastern redbud Cercis canadensis Leaves Dropping (None) 28.074090000000000 -82.520890000000000 69770
Mon Aug 22 00:00:00 GMT 2016 quincystiles Eastern redbud Cercis canadensis Flowers (None) 28.074090000000000 -82.520890000000000 69771
Mon Aug 22 00:00:00 GMT 2016 quincystiles Eastern redbud Cercis canadensis Fruit (None) 28.074090000000000 -82.520890000000000 69772
Tue Sep 20 00:00:00 GMT 2016 cyoo Eastern redbud Cercis canadensis Leaves Unfolding (Late) 33.224212000000000 -97.128657000000000 69902
Tue Sep 20 00:00:00 GMT 2016 cyoo Eastern redbud Cercis canadensis Leaves Changing Color (Early) 33.224212000000000 -97.128657000000000 69903
Tue Sep 20 00:00:00 GMT 2016 cyoo Eastern redbud Cercis canadensis Leaves Dropping (Middle) 33.224212000000000 -97.128657000000000 69904
Tue Sep 20 00:00:00 GMT 2016 cyoo Eastern redbud Cercis canadensis Flowers (None) 33.224212000000000 -97.128657000000000 69905
Tue Sep 20 00:00:00 GMT 2016 cyoo Eastern redbud Cercis canadensis Fruit (Middle) 33.224212000000000 -97.128657000000000 69906
Sun Sep 25 00:00:00 GMT 2016 westcreek Eastern redbud Cercis canadensis Leaves Unfolding (Late) 41.386340000000000 -81.696396000000000 70082
Sun Sep 25 00:00:00 GMT 2016 westcreek Eastern redbud Cercis canadensis Leaves Changing Color (Early) 41.386340000000000 -81.696396000000000 70083
Sun Sep 25 00:00:00 GMT 2016 westcreek Eastern redbud Cercis canadensis Leaves Dropping (None) 41.386340000000000 -81.696396000000000 70084
Sun Sep 25 00:00:00 GMT 2016 westcreek Eastern redbud Cercis canadensis Flowers (Early) 41.386340000000000 -81.696396000000000 70085
Sun Sep 25 00:00:00 GMT 2016 westcreek Eastern redbud Cercis canadensis Fruit (None) 41.386340000000000 -81.696396000000000 70086
Fri Sep 30 00:00:00 GMT 2016 MrsFoltzClass_Powhatan_Courtyard_reporter39 Eastern redbud Cercis canadensis Bud Burst 39.079630000000000 -78.046760000000000 70294
Sat Oct 01 00:00:00 GMT 2016 chickendave Eastern redbud Cercis canadensis Leaves Unfolding (None) 38.604429000000000 -90.573413000000000 70309
Sat Oct 01 00:00:00 GMT 2016 chickendave Eastern redbud Cercis canadensis Leaves Changing Color (Early) 38.604429000000000 -90.573413000000000 70310
Sat Oct 01 00:00:00 GMT 2016 chickendave Eastern redbud Cercis canadensis Leaves Dropping (None) 38.604429000000000 -90.573413000000000 70311
Sat Oct 01 00:00:00 GMT 2016 chickendave Eastern redbud Cercis canadensis Flowers (None) 38.604429000000000 -90.573413000000000 70312
Sat Oct 01 00:00:00 GMT 2016 chickendave Eastern redbud Cercis canadensis Fruit (None) 38.604429000000000 -90.573413000000000 70313
Sat Oct 08 00:00:00 GMT 2016 chickendave Eastern redbud Cercis canadensis Leaves Unfolding (None) 38.603730000000000 -90.572890000000000 70583
Sat Oct 08 00:00:00 GMT 2016 chickendave Eastern redbud Cercis canadensis Leaves Changing Color (Early) 38.603730000000000 -90.572890000000000 70584
Sat Oct 08 00:00:00 GMT 2016 chickendave Eastern redbud Cercis canadensis Leaves Dropping (Early) 38.603730000000000 -90.572890000000000 70585
Sat Oct 08 00:00:00 GMT 2016 chickendave Eastern redbud Cercis canadensis Flowers (None) 38.603730000000000 -90.572890000000000 70586
Sat Oct 08 00:00:00 GMT 2016 chickendave Eastern redbud Cercis canadensis Fruit (None) 38.603730000000000 -90.572890000000000 70587
Thu Sep 15 00:00:00 GMT 2016 d4thman Eastern redbud Cercis canadensis Full Fruiting 36.006750000000000 -96.166880000000000 70606
Mon Oct 10 00:00:00 GMT 2016 bthomps1 Eastern redbud Cercis canadensis Full Fruiting 38.195980000000000 -85.534280000000000 70811
Mon Oct 17 00:00:00 GMT 2016 bthomps1 Eastern redbud Cercis canadensis 50% Color 38.195980000000000 -85.534280000000000 70812
Tue Oct 18 00:00:00 GMT 2016 SWRaiders_Southern_Wells_High_School_reporter1 Eastern redbud Cercis canadensis 50% Color 40.609672000000000 -85.281131000000000 70934
Wed Oct 19 00:00:00 GMT 2016 RRNWR Eastern redbud Cercis canadensis Leaves Unfolding (Late) 32.447470000000000 -93.672280000000000 70935
Wed Oct 19 00:00:00 GMT 2016 RRNWR Eastern redbud Cercis canadensis Leaves Changing Color (Early) 32.447470000000000 -93.672280000000000 70936
Wed Oct 19 00:00:00 GMT 2016 RRNWR Eastern redbud Cercis canadensis Leaves Dropping (Early) 32.447470000000000 -93.672280000000000 70937
Wed Oct 19 00:00:00 GMT 2016 RRNWR Eastern redbud Cercis canadensis Flowers (None) 32.447470000000000 -93.672280000000000 70938
Wed Oct 19 00:00:00 GMT 2016 RRNWR Eastern redbud Cercis canadensis Fruit (Middle) 32.447470000000000 -93.672280000000000 70939
Wed Oct 19 00:00:00 GMT 2016 Nolan135 Eastern redbud Cercis canadensis Full Flower 33.928838000000000 -84.435875000000000 72525
Wed Oct 19 00:00:00 GMT 2016 Nolan135 Eastern redbud Cercis canadensis First Ripe Fruit 33.928838000000000 -84.435875000000000 72526
Wed Oct 26 00:00:00 GMT 2016 Nolan135 Eastern redbud Cercis canadensis Full Fruiting 33.928838000000000 -84.435875000000000 72527
Wed Oct 26 00:00:00 GMT 2016 Nolan135 Eastern redbud Cercis canadensis 50% Color 33.928838000000000 -84.435875000000000 72528
Wed Nov 02 00:00:00 GMT 2016 Nolan135 Eastern redbud Cercis canadensis 50% Leaf Fall 33.928838000000000 -84.435875000000000 72529
Fri Oct 28 00:00:00 GMT 2016 bthomps1 Eastern redbud Cercis canadensis 50% Leaf Fall 38.195980000000000 -85.534280000000000 72639
Thu Nov 10 00:00:00 GMT 2016 SWRaiders_Southern_Wells_High_School_reporter1 Eastern redbud Cercis canadensis 50% Leaf Fall 40.609672000000000 -85.281131000000000 73194
Mon Nov 14 00:00:00 GMT 2016 laurob Eastern redbud Cercis canadensis Leaves Unfolding (Late) 41.032690000000000 -72.478980000000000 73196
Mon Nov 14 00:00:00 GMT 2016 laurob Eastern redbud Cercis canadensis Leaves Changing Color (Late) 41.032690000000000 -72.478980000000000 73197
Mon Nov 14 00:00:00 GMT 2016 laurob Eastern redbud Cercis canadensis Leaves Dropping (Early) 41.032690000000000 -72.478980000000000 73198
Mon Nov 14 00:00:00 GMT 2016 laurob Eastern redbud Cercis canadensis Flowers (Late) 41.032690000000000 -72.478980000000000 73199
Mon Nov 14 00:00:00 GMT 2016 laurob Eastern redbud Cercis canadensis Fruit (Late) 41.032690000000000 -72.478980000000000 73200
Mon Aug 29 00:00:00 GMT 2016 brilutgring Eastern redbud Cercis canadensis Bud Burst 40.000000000000000 -100.000000000000000 73438
Mon Nov 14 00:00:00 GMT 2016 brilutgring Eastern redbud Cercis canadensis 50% Color 40.000000000000000 -100.000000000000000 73439
Wed Sep 07 00:00:00 GMT 2016 brilutgring Eastern redbud Cercis canadensis 50% Leaf Fall 40.000000000000000 -100.000000000000000 73440
Thu Nov 03 00:00:00 GMT 2016 bkanoy_MS_Raingarden_reporter28 Eastern redbud Cercis canadensis 50% Color 35.968525000000000 -78.945072000000000 73696
Fri Nov 18 00:00:00 GMT 2016 bkanoy_MS_Raingarden_reporter28 Eastern redbud Cercis canadensis 50% Leaf Fall 35.968525000000000 -78.945072000000000 73697
Sun Oct 16 00:00:00 GMT 2016 allib001 Eastern redbud Cercis canadensis 50% Color 45.053700000000000 -92.812700000000000 74081
Wed Nov 16 00:00:00 GMT 2016 datwilliam Eastern redbud Cercis canadensis Leaves Unfolding (Late) 35.340240000000000 -97.558180000000000 74155
Wed Nov 16 00:00:00 GMT 2016 datwilliam Eastern redbud Cercis canadensis Leaves Changing Color (Early) 35.340240000000000 -97.558180000000000 74156
Wed Nov 16 00:00:00 GMT 2016 datwilliam Eastern redbud Cercis canadensis Leaves Dropping (None) 35.340240000000000 -97.558180000000000 74157
Wed Nov 16 00:00:00 GMT 2016 datwilliam Eastern redbud Cercis canadensis Flowers (None) 35.340240000000000 -97.558180000000000 74158
Wed Nov 16 00:00:00 GMT 2016 datwilliam Eastern redbud Cercis canadensis Fruit (None) 35.340240000000000 -97.558180000000000 74159
Wed Jan 18 00:00:00 GMT 2017 redbud2017 Eastern redbud Cercis canadensis Leaves Unfolding (None) 39.789011000000000 -105.030708000000000 74469
Wed Jan 18 00:00:00 GMT 2017 redbud2017 Eastern redbud Cercis canadensis Leaves Changing Color (None) 39.789011000000000 -105.030708000000000 74470
Wed Jan 18 00:00:00 GMT 2017 redbud2017 Eastern redbud Cercis canadensis Leaves Dropping (None) 39.789011000000000 -105.030708000000000 74471
Wed Jan 18 00:00:00 GMT 2017 redbud2017 Eastern redbud Cercis canadensis Flowers (None) 39.789011000000000 -105.030708000000000 74472
Wed Jan 18 00:00:00 GMT 2017 redbud2017 Eastern redbud Cercis canadensis Fruit (None) 39.789011000000000 -105.030708000000000 74473
Tue Jan 31 00:00:00 GMT 2017 bkanoy_MS_Raingarden_reporter28 Eastern redbud Cercis canadensis Leaves Unfolding (None) 35.969132000000000 -78.945415000000000 74652
Tue Jan 31 00:00:00 GMT 2017 bkanoy_MS_Raingarden_reporter28 Eastern redbud Cercis canadensis Leaves Changing Color (None) 35.969132000000000 -78.945415000000000 74653
Tue Jan 31 00:00:00 GMT 2017 bkanoy_MS_Raingarden_reporter28 Eastern redbud Cercis canadensis Leaves Dropping (Late) 35.969132000000000 -78.945415000000000 74654
Tue Jan 31 00:00:00 GMT 2017 bkanoy_MS_Raingarden_reporter28 Eastern redbud Cercis canadensis Flowers (None) 35.969132000000000 -78.945415000000000 74655
Tue Jan 31 00:00:00 GMT 2017 bkanoy_MS_Raingarden_reporter28 Eastern redbud Cercis canadensis Fruit (None) 35.969132000000000 -78.945415000000000 74656
Thu Feb 09 00:00:00 GMT 2017 liveoak78209 Eastern redbud Cercis canadensis Bud Burst 29.372602000000000 -98.426514000000000 74926
Thu Feb 23 00:00:00 GMT 2017 bkanoy_MS_Raingarden_reporter28 Eastern redbud Cercis canadensis Leaves Unfolding (None) 35.969120000000000 -78.945410000000000 75025
Thu Feb 23 00:00:00 GMT 2017 bkanoy_MS_Raingarden_reporter28 Eastern redbud Cercis canadensis Leaves Changing Color (None) 35.969120000000000 -78.945410000000000 75026
Thu Feb 23 00:00:00 GMT 2017 bkanoy_MS_Raingarden_reporter28 Eastern redbud Cercis canadensis Leaves Dropping (None) 35.969120000000000 -78.945410000000000 75027
Thu Feb 23 00:00:00 GMT 2017 bkanoy_MS_Raingarden_reporter28 Eastern redbud Cercis canadensis Flowers (None) 35.969120000000000 -78.945410000000000 75028
Thu Feb 23 00:00:00 GMT 2017 bkanoy_MS_Raingarden_reporter28 Eastern redbud Cercis canadensis Fruit (None) 35.969120000000000 -78.945410000000000 75029
Fri Mar 03 00:00:00 GMT 2017 bthomps1 Eastern redbud Cercis canadensis Bud Burst 38.195980000000000 -85.534280000000000 75193
Thu Mar 02 00:00:00 GMT 2017 d4thman Eastern redbud Cercis canadensis Bud Burst 36.006750000000000 -96.166880000000000 75206
Fri Mar 03 00:00:00 GMT 2017 ehsmith62 Eastern redbud Cercis canadensis Bud Burst 39.172010000000000 -77.272510000000000 75207
Mon Mar 06 00:00:00 GMT 2017 bkanoy_MS_Raingarden_reporter28 Eastern redbud Cercis canadensis Bud Burst 35.968525000000000 -78.945072000000000 75222
Tue Mar 07 00:00:00 GMT 2017 mikewenger Eastern redbud Cercis canadensis Bud Burst 38.764792000000000 -78.147072000000000 75311
Sun Feb 26 00:00:00 GMT 2017 geodruid Eastern redbud Cercis canadensis Bud Burst 38.438290000000000 -78.069950000000000 75317
Thu Mar 09 00:00:00 GMT 2017 jeanmells Eastern redbud Cercis canadensis Full Flower 35.797400000000000 -78.634050000000000 75395
Thu Mar 09 00:00:00 GMT 2017 phloxfly Eastern redbud Cercis canadensis Full Flower 36.300950000000000 -95.577990000000000 75402
Sun Mar 12 00:00:00 GMT 2017 O2Factories Eastern redbud Cercis canadensis Leaves Unfolding (None) 35.896276300000000 -86.410090300000000 75431
Sun Mar 12 00:00:00 GMT 2017 O2Factories Eastern redbud Cercis canadensis Leaves Changing Color (None) 35.896276300000000 -86.410090300000000 75432
Sun Mar 12 00:00:00 GMT 2017 O2Factories Eastern redbud Cercis canadensis Leaves Dropping (None) 35.896276300000000 -86.410090300000000 75433
Sun Mar 12 00:00:00 GMT 2017 O2Factories Eastern redbud Cercis canadensis Flowers (Early) 35.896276300000000 -86.410090300000000 75434
Sun Mar 12 00:00:00 GMT 2017 O2Factories Eastern redbud Cercis canadensis Fruit (None) 35.896276300000000 -86.410090300000000 75435
Mon Mar 20 00:00:00 GMT 2017 redbud2017 Eastern redbud Cercis canadensis Leaves Unfolding (None) 39.788964000000000 -105.030589200000000 76021
Mon Mar 20 00:00:00 GMT 2017 redbud2017 Eastern redbud Cercis canadensis Leaves Changing Color (None) 39.788964000000000 -105.030589200000000 76022
Mon Mar 20 00:00:00 GMT 2017 redbud2017 Eastern redbud Cercis canadensis Leaves Dropping (None) 39.788964000000000 -105.030589200000000 76023
Mon Mar 20 00:00:00 GMT 2017 redbud2017 Eastern redbud Cercis canadensis Flowers (Middle) 39.788964000000000 -105.030589200000000 76024
Mon Mar 20 00:00:00 GMT 2017 redbud2017 Eastern redbud Cercis canadensis Fruit (None) 39.788964000000000 -105.030589200000000 76025
Mon Mar 20 00:00:00 GMT 2017 Scutacarus1964 Eastern redbud Cercis canadensis Bud Burst 39.398760000000000 -101.029760000000000 76027
Mon Mar 27 00:00:00 GMT 2017 lilypond Eastern redbud Cercis canadensis Bud Burst 38.603980000000000 -78.077160000000000 76481
Thu Mar 30 00:00:00 GMT 2017 bkanoy_MS_Raingarden_reporter28 Eastern redbud Cercis canadensis Full Flower 35.968525000000000 -78.945072000000000 76563
Mon Mar 27 00:00:00 GMT 2017 bthomps1 Eastern redbud Cercis canadensis First Flower 38.195980000000000 -85.534280000000000 76622
Fri Mar 31 00:00:00 GMT 2017 bthomps1 Eastern redbud Cercis canadensis Full Flower 38.195980000000000 -85.534280000000000 76623
Sun Apr 02 00:00:00 GMT 2017 d4thman Eastern redbud Cercis canadensis First Leaf 36.006750000000000 -96.166880000000000 76748
Thu Mar 02 00:00:00 GMT 2017 d4thman Eastern redbud Cercis canadensis First Flower 36.006750000000000 -96.166880000000000 76749
Thu Mar 16 00:00:00 GMT 2017 d4thman Eastern redbud Cercis canadensis Full Flower 36.006750000000000 -96.166880000000000 76750
Mon Apr 03 00:00:00 GMT 2017 SWRaiders_Southern_Wells_High_School_reporter1 Eastern redbud Cercis canadensis Bud Burst 40.609672000000000 -85.281131000000000 76775
Wed Mar 29 00:00:00 GMT 2017 ldanders Eastern redbud Cercis canadensis Bud Burst 35.128600000000000 -80.717750000000000 76819
Thu Mar 30 00:00:00 GMT 2017 ldanders Eastern redbud Cercis canadensis First Leaf 35.128600000000000 -80.717750000000000 76820
Tue Nov 01 00:00:00 GMT 2016 ldanders Eastern redbud Cercis canadensis 50% Color 35.128600000000000 -80.717750000000000 76821
Tue Oct 11 00:00:00 GMT 2016 ldanders Eastern redbud Cercis canadensis 50% Leaf Fall 35.128600000000000 -80.717750000000000 76822
Tue Apr 04 00:00:00 GMT 2017 ehsmith62 Eastern redbud Cercis canadensis First Flower 39.172010000000000 -77.272510000000000 76919
Tue Mar 28 00:00:00 GMT 2017 mb9er Eastern redbud Cercis canadensis Leaves Unfolding (None) 37.578833000000000 -77.537053000000000 76930
Tue Mar 28 00:00:00 GMT 2017 mb9er Eastern redbud Cercis canadensis Leaves Changing Color (None) 37.578833000000000 -77.537053000000000 76931
Tue Mar 28 00:00:00 GMT 2017 mb9er Eastern redbud Cercis canadensis Leaves Dropping (None) 37.578833000000000 -77.537053000000000 76932
Tue Mar 28 00:00:00 GMT 2017 mb9er Eastern redbud Cercis canadensis Flowers (Middle) 37.578833000000000 -77.537053000000000 76933
Tue Mar 28 00:00:00 GMT 2017 mb9er Eastern redbud Cercis canadensis Fruit (None) 37.578833000000000 -77.537053000000000 76934
Thu Feb 09 00:00:00 GMT 2017 kenseger Eastern redbud Cercis canadensis Bud Burst 39.176650000000000 -86.528030000000000 76944
Thu Mar 09 00:00:00 GMT 2017 kenseger Eastern redbud Cercis canadensis First Ripe Fruit 39.176650000000000 -86.528030000000000 76945
Mon Mar 27 00:00:00 GMT 2017 kenseger Eastern redbud Cercis canadensis 50% Color 39.176650000000000 -86.528030000000000 76946
Fri Apr 07 00:00:00 GMT 2017 mtipping64 Eastern redbud Cercis canadensis Bud Burst 39.906960000000000 -75.351470000000000 76949
Fri Apr 07 00:00:00 GMT 2017 mtipping64 Eastern redbud Cercis canadensis Full Flower 39.906960000000000 -75.351470000000000 76950
Wed Apr 05 00:00:00 GMT 2017 d4thman Eastern redbud Cercis canadensis All Leaves Unfolded 36.006750000000000 -96.166880000000000 76952
Fri Apr 07 00:00:00 GMT 2017 kmburn04 Eastern redbud Cercis canadensis All Leaves Unfolded 34.014268000000000 -87.362839000000000 76961
Tue Feb 21 00:00:00 GMT 2017 rachelclark Eastern redbud Cercis canadensis Bud Burst 39.166088000000000 -86.517570000000000 76971
Tue Apr 04 00:00:00 GMT 2017 rachelclark Eastern redbud Cercis canadensis First Flower 39.166088000000000 -86.517570000000000 76972
Thu Apr 06 00:00:00 GMT 2017 rachelclark Eastern redbud Cercis canadensis Full Flower 39.166088000000000 -86.517570000000000 76973
Tue Mar 21 00:00:00 GMT 2017 paigedougherty Eastern redbud Cercis canadensis Bud Burst 39.168645000000000 -86.512045000000000 77015
Tue Mar 28 00:00:00 GMT 2017 paigedougherty Eastern redbud Cercis canadensis First Flower 39.168645000000000 -86.512045000000000 77016
Thu Mar 30 00:00:00 GMT 2017 paigedougherty Eastern redbud Cercis canadensis Full Flower 39.168645000000000 -86.512045000000000 77017
Tue Feb 21 00:00:00 GMT 2017 alyrande Eastern redbud Cercis canadensis Leaves Unfolding (Early) 39.165817000000000 -86.516591000000000 77108
Tue Feb 21 00:00:00 GMT 2017 alyrande Eastern redbud Cercis canadensis Leaves Changing Color (None) 39.165817000000000 -86.516591000000000 77109
Tue Feb 21 00:00:00 GMT 2017 alyrande Eastern redbud Cercis canadensis Leaves Dropping (None) 39.165817000000000 -86.516591000000000 77110
Tue Feb 21 00:00:00 GMT 2017 alyrande Eastern redbud Cercis canadensis Flowers (Early) 39.165817000000000 -86.516591000000000 77111
Tue Feb 21 00:00:00 GMT 2017 alyrande Eastern redbud Cercis canadensis Fruit (None) 39.165817000000000 -86.516591000000000 77112
Tue Mar 07 00:00:00 GMT 2017 racheltheresa Eastern redbud Cercis canadensis Bud Burst 39.170783000000000 -86.520330000000000 77195
Thu Feb 23 00:00:00 GMT 2017 racheltheresa Eastern redbud Cercis canadensis Bud Burst 39.170583000000000 -86.520276000000000 77198
Thu Apr 06 00:00:00 GMT 2017 racheltheresa Eastern redbud Cercis canadensis First Flower 39.170583000000000 -86.520276000000000 77199
Sat Apr 08 00:00:00 GMT 2017 ehsmith62 Eastern redbud Cercis canadensis Full Flower 39.172010000000000 -77.272510000000000 77287
Sun Apr 02 00:00:00 GMT 2017 swashburn57 Eastern redbud Cercis canadensis Bud Burst 40.506360000000000 -79.894670000000000 77331
Tue Apr 04 00:00:00 GMT 2017 swashburn57 Eastern redbud Cercis canadensis First Flower 40.506360000000000 -79.894670000000000 77332
Fri Mar 31 00:00:00 GMT 2017 sr295008 Eastern redbud Cercis canadensis Bud Burst 39.248850000000000 -82.097690000000000 77524
Sat Apr 01 00:00:00 GMT 2017 sr295008 Eastern redbud Cercis canadensis First Flower 39.248850000000000 -82.097690000000000 77525
Sun Apr 09 00:00:00 GMT 2017 sr295008 Eastern redbud Cercis canadensis Full Flower 39.248850000000000 -82.097690000000000 77526
Sat Apr 08 00:00:00 GMT 2017 allib001 Eastern redbud Cercis canadensis Bud Burst 45.053700000000000 -92.812700000000000 77587
Fri Mar 31 00:00:00 GMT 2017 Scutacarus1964 Eastern redbud Cercis canadensis First Flower 39.398760000000000 -101.029760000000000 77878
Wed Apr 05 00:00:00 GMT 2017 Scutacarus1964 Eastern redbud Cercis canadensis Full Flower 39.398760000000000 -101.029760000000000 77879
Fri Apr 14 00:00:00 GMT 2017 SpencerStokes Eastern redbud Cercis canadensis Leaves Unfolding (Middle) 37.439201000000000 -77.662938000000000 77917
Fri Apr 14 00:00:00 GMT 2017 SpencerStokes Eastern redbud Cercis canadensis Leaves Changing Color (None) 37.439201000000000 -77.662938000000000 77918
Fri Apr 14 00:00:00 GMT 2017 SpencerStokes Eastern redbud Cercis canadensis Leaves Dropping (None) 37.439201000000000 -77.662938000000000 77919
Fri Apr 14 00:00:00 GMT 2017 SpencerStokes Eastern redbud Cercis canadensis Flowers (None) 37.439201000000000 -77.662938000000000 77920
Fri Apr 14 00:00:00 GMT 2017 SpencerStokes Eastern redbud Cercis canadensis Fruit (None) 37.439201000000000 -77.662938000000000 77921
Tue Apr 04 00:00:00 GMT 2017 drgranger Eastern redbud Cercis canadensis First Leaf 35.599956000000000 -77.364318000000000 77948
Thu Mar 23 00:00:00 GMT 2017 drgranger Eastern redbud Cercis canadensis Full Flower 35.599956000000000 -77.364318000000000 77949
Thu Mar 23 00:00:00 GMT 2017 drgranger Eastern redbud Cercis canadensis Bud Burst 35.599990000000000 -77.364334000000000 77950
Tue Apr 04 00:00:00 GMT 2017 drgranger Eastern redbud Cercis canadensis First Leaf 35.599990000000000 -77.364334000000000 77951
Mon Apr 10 00:00:00 GMT 2017 drgranger Eastern redbud Cercis canadensis All Leaves Unfolded 35.599990000000000 -77.364334000000000 77952
Thu Mar 23 00:00:00 GMT 2017 drgranger Eastern redbud Cercis canadensis Bud Burst 35.600000000000000 -77.364415000000000 77953
Tue Apr 04 00:00:00 GMT 2017 drgranger Eastern redbud Cercis canadensis First Leaf 35.600000000000000 -77.364415000000000 77954
Mon Apr 10 00:00:00 GMT 2017 drgranger Eastern redbud Cercis canadensis All Leaves Unfolded 35.600000000000000 -77.364415000000000 77955
Thu Mar 23 00:00:00 GMT 2017 drgranger Eastern redbud Cercis canadensis Bud Burst 35.599915000000000 -77.363898000000000 77956
Tue Apr 04 00:00:00 GMT 2017 drgranger Eastern redbud Cercis canadensis First Leaf 35.599915000000000 -77.363898000000000 77957
Fri Apr 14 00:00:00 GMT 2017 ehsmith62 Eastern redbud Cercis canadensis All Leaves Unfolded 39.172010000000000 -77.272510000000000 77981
Sat Apr 15 00:00:00 GMT 2017 Scutacarus1964 Eastern redbud Cercis canadensis First Leaf 39.398760000000000 -101.029760000000000 78128
Tue Apr 04 00:00:00 GMT 2017 drgranger Eastern redbud Cercis canadensis First Leaf 35.600124000000000 -77.363829000000000 78301
Mon Apr 10 00:00:00 GMT 2017 drgranger Eastern redbud Cercis canadensis All Leaves Unfolded 35.600124000000000 -77.363829000000000 78302
Thu Mar 23 00:00:00 GMT 2017 drgranger Eastern redbud Cercis canadensis First Flower 35.600124000000000 -77.363829000000000 78303
Mon Apr 10 00:00:00 GMT 2017 drgranger Eastern redbud Cercis canadensis All Leaves Unfolded 35.599915000000000 -77.363898000000000 78304
Mon Apr 10 00:00:00 GMT 2017 drgranger Eastern redbud Cercis canadensis All Leaves Unfolded 35.599956000000000 -77.364318000000000 78305
Mon Apr 10 00:00:00 GMT 2017 bthomps1 Eastern redbud Cercis canadensis First Leaf 38.195980000000000 -85.534280000000000 78581
Wed Apr 05 00:00:00 GMT 2017 sbriggs24 Eastern redbud Cercis canadensis Bud Burst 39.205230000000000 -84.500930000000000 78704
Fri Apr 14 00:00:00 GMT 2017 sbriggs24 Eastern redbud Cercis canadensis First Leaf 39.205230000000000 -84.500930000000000 78705
Tue Apr 18 00:00:00 GMT 2017 sbriggs24 Eastern redbud Cercis canadensis All Leaves Unfolded 39.205230000000000 -84.500930000000000 78706
Sat Apr 01 00:00:00 GMT 2017 sbriggs24 Eastern redbud Cercis canadensis First Flower 39.205230000000000 -84.500930000000000 78707
Sun Apr 02 00:00:00 GMT 2017 sbriggs24 Eastern redbud Cercis canadensis Full Flower 39.205230000000000 -84.500930000000000 78708
Mon Apr 10 00:00:00 GMT 2017 rachelsafko Eastern redbud Cercis canadensis Bud Burst 40.726880000000000 -73.943490000000000 78781
Mon Apr 10 00:00:00 GMT 2017 leisteda Eastern redbud Cercis canadensis Bud Burst 40.449010000000000 -80.203160000000000 79024
Fri Apr 14 00:00:00 GMT 2017 leisteda Eastern redbud Cercis canadensis First Flower 40.449010000000000 -80.203160000000000 79025
Sun Apr 16 00:00:00 GMT 2017 leisteda Eastern redbud Cercis canadensis Full Flower 40.449010000000000 -80.203160000000000 79026
Thu Apr 20 00:00:00 GMT 2017 kaitlyn8 Eastern redbud Cercis canadensis Leaves Unfolding (Early) 40.127166000000000 -75.119153000000000 79878
Thu Apr 20 00:00:00 GMT 2017 kaitlyn8 Eastern redbud Cercis canadensis Leaves Changing Color (None) 40.127166000000000 -75.119153000000000 79879
Thu Apr 20 00:00:00 GMT 2017 kaitlyn8 Eastern redbud Cercis canadensis Leaves Dropping (None) 40.127166000000000 -75.119153000000000 79880
Thu Apr 20 00:00:00 GMT 2017 kaitlyn8 Eastern redbud Cercis canadensis Flowers (Middle) 40.127166000000000 -75.119153000000000 79881
Thu Apr 20 00:00:00 GMT 2017 kaitlyn8 Eastern redbud Cercis canadensis Fruit (None) 40.127166000000000 -75.119153000000000 79882
Fri Apr 21 00:00:00 GMT 2017 JamesKraatz Eastern redbud Cercis canadensis Bud Burst 42.251352000000000 -85.603173000000000 80003
Mon Apr 24 00:00:00 GMT 2017 JamesKraatz Eastern redbud Cercis canadensis First Leaf 42.251352000000000 -85.603173000000000 80004
Sat Apr 22 00:00:00 GMT 2017 JamesKraatz Eastern redbud Cercis canadensis First Flower 42.251352000000000 -85.603173000000000 80005
Mon Apr 24 00:00:00 GMT 2017 JamesKraatz Eastern redbud Cercis canadensis Full Flower 42.251352000000000 -85.603173000000000 80006
Thu Feb 23 00:00:00 GMT 2017 LindseyHendricks Eastern redbud Cercis canadensis Bud Burst 35.534880000000000 -98.706408000000000 80145
Mon Mar 27 00:00:00 GMT 2017 LindseyHendricks Eastern redbud Cercis canadensis First Leaf 35.534880000000000 -98.706408000000000 80146
Fri Apr 21 00:00:00 GMT 2017 LindseyHendricks Eastern redbud Cercis canadensis All Leaves Unfolded 35.534880000000000 -98.706408000000000 80147
Tue Mar 21 00:00:00 GMT 2017 LindseyHendricks Eastern redbud Cercis canadensis First Flower 35.534880000000000 -98.706408000000000 80148
Mon Apr 03 00:00:00 GMT 2017 LindseyHendricks Eastern redbud Cercis canadensis Full Flower 35.534880000000000 -98.706408000000000 80149
Fri Feb 03 00:00:00 GMT 2017 ecojesse Eastern redbud Cercis canadensis Leaves Unfolding (None) 35.515610000000000 -98.967310000000000 80178
Fri Feb 03 00:00:00 GMT 2017 ecojesse Eastern redbud Cercis canadensis Leaves Changing Color (None) 35.515610000000000 -98.967310000000000 80179
Fri Feb 03 00:00:00 GMT 2017 ecojesse Eastern redbud Cercis canadensis Leaves Dropping (None) 35.515610000000000 -98.967310000000000 80180
Fri Feb 03 00:00:00 GMT 2017 ecojesse Eastern redbud Cercis canadensis Flowers (None) 35.515610000000000 -98.967310000000000 80181
Fri Feb 03 00:00:00 GMT 2017 ecojesse Eastern redbud Cercis canadensis Fruit (None) 35.515610000000000 -98.967310000000000 80182
Fri Mar 10 00:00:00 GMT 2017 ecojesse Eastern redbud Cercis canadensis All Leaves Unfolded 35.470760000000000 -98.990790000000000 80183
Fri Mar 10 00:00:00 GMT 2017 ecojesse Eastern redbud Cercis canadensis 50% Color 35.470760000000000 -98.990790000000000 80184
Fri Feb 03 00:00:00 GMT 2017 ecojesse Eastern redbud Cercis canadensis First Leaf 35.470760000000000 -98.990790000000000 80188
Fri Feb 24 00:00:00 GMT 2017 ecojesse Eastern redbud Cercis canadensis First Flower 35.470760000000000 -98.990790000000000 80189
Mon Apr 10 00:00:00 GMT 2017 laurob_St._John's_University__reporter13 Eastern redbud Cercis canadensis Bud Burst 40.721400000000000 -73.793200000000000 80452
Mon Apr 24 00:00:00 GMT 2017 laurob_St._John's_University__reporter13 Eastern redbud Cercis canadensis First Leaf 40.721400000000000 -73.793200000000000 80453
Wed Apr 19 00:00:00 GMT 2017 laurob_St._John's_University__reporter13 Eastern redbud Cercis canadensis First Flower 40.721400000000000 -73.793200000000000 80454
Thu Apr 27 00:00:00 GMT 2017 laurob_St._John's_University__reporter13 Eastern redbud Cercis canadensis Full Flower 40.721400000000000 -73.793200000000000 80455
Fri Apr 28 00:00:00 GMT 2017 redbud2017 Eastern redbud Cercis canadensis Leaves Unfolding (Early) 39.788993000000000 -105.030539000000000 80546
Fri Apr 28 00:00:00 GMT 2017 redbud2017 Eastern redbud Cercis canadensis Leaves Changing Color (None) 39.788993000000000 -105.030539000000000 80547
Fri Apr 28 00:00:00 GMT 2017 redbud2017 Eastern redbud Cercis canadensis Leaves Dropping (None) 39.788993000000000 -105.030539000000000 80548
Fri Apr 28 00:00:00 GMT 2017 redbud2017 Eastern redbud Cercis canadensis Flowers (Middle) 39.788993000000000 -105.030539000000000 80549
Fri Apr 28 00:00:00 GMT 2017 redbud2017 Eastern redbud Cercis canadensis Fruit (None) 39.788993000000000 -105.030539000000000 80550
Mon Feb 27 00:00:00 GMT 2017 rainbowtrees Eastern redbud Cercis canadensis Bud Burst 35.577108000000000 -82.585741000000000 80862
Mon Apr 10 00:00:00 GMT 2017 rainbowtrees Eastern redbud Cercis canadensis First Leaf 35.577108000000000 -82.585741000000000 80863
Mon Apr 17 00:00:00 GMT 2017 rainbowtrees Eastern redbud Cercis canadensis All Leaves Unfolded 35.577108000000000 -82.585741000000000 80864
Wed Mar 29 00:00:00 GMT 2017 rainbowtrees Eastern redbud Cercis canadensis First Flower 35.577108000000000 -82.585741000000000 80865
Sun Apr 02 00:00:00 GMT 2017 rainbowtrees Eastern redbud Cercis canadensis Full Flower 35.577108000000000 -82.585741000000000 80866
Mon Mar 06 00:00:00 GMT 2017 rainbowtrees Eastern redbud Cercis canadensis Bud Burst 35.577300000000000 -82.586256000000000 80888
Mon Apr 17 00:00:00 GMT 2017 rainbowtrees Eastern redbud Cercis canadensis First Leaf 35.577300000000000 -82.586256000000000 80889
Tue Apr 25 00:00:00 GMT 2017 rainbowtrees Eastern redbud Cercis canadensis All Leaves Unfolded 35.577300000000000 -82.586256000000000 80890
Wed Mar 29 00:00:00 GMT 2017 rainbowtrees Eastern redbud Cercis canadensis First Flower 35.577300000000000 -82.586256000000000 80891
Wed Apr 05 00:00:00 GMT 2017 rainbowtrees Eastern redbud Cercis canadensis Full Flower 35.577300000000000 -82.586256000000000 80892
Fri Mar 10 00:00:00 GMT 2017 rainbowtrees Eastern redbud Cercis canadensis Bud Burst 35.578051000000000 -82.586251000000000 80922
Thu Apr 13 00:00:00 GMT 2017 rainbowtrees Eastern redbud Cercis canadensis First Leaf 35.578051000000000 -82.586251000000000 80923
Mon Apr 17 00:00:00 GMT 2017 rainbowtrees Eastern redbud Cercis canadensis All Leaves Unfolded 35.578051000000000 -82.586251000000000 80924
Wed Apr 05 00:00:00 GMT 2017 rainbowtrees Eastern redbud Cercis canadensis First Flower 35.578051000000000 -82.586251000000000 80925
Mon Apr 10 00:00:00 GMT 2017 rainbowtrees Eastern redbud Cercis canadensis Full Flower 35.578051000000000 -82.586251000000000 80926
Mon May 01 00:00:00 GMT 2017 redbud2017 Eastern redbud Cercis canadensis Leaves Unfolding (Early) 39.788990000000000 -105.030488000000000 80947
Mon May 01 00:00:00 GMT 2017 redbud2017 Eastern redbud Cercis canadensis Leaves Changing Color (None) 39.788990000000000 -105.030488000000000 80948
Mon May 01 00:00:00 GMT 2017 redbud2017 Eastern redbud Cercis canadensis Leaves Dropping (None) 39.788990000000000 -105.030488000000000 80949
Mon May 01 00:00:00 GMT 2017 redbud2017 Eastern redbud Cercis canadensis Flowers (Middle) 39.788990000000000 -105.030488000000000 80950
Mon May 01 00:00:00 GMT 2017 redbud2017 Eastern redbud Cercis canadensis Fruit (None) 39.788990000000000 -105.030488000000000 80951
Wed Apr 26 00:00:00 GMT 2017 swashburn57 Eastern redbud Cercis canadensis First Leaf 40.506360000000000 -79.894670000000000 81686
Fri May 05 00:00:00 GMT 2017 swashburn57 Eastern redbud Cercis canadensis All Leaves Unfolded 40.506360000000000 -79.894670000000000 81687
Tue Apr 18 00:00:00 GMT 2017 swashburn57 Eastern redbud Cercis canadensis Full Flower 40.506360000000000 -79.894670000000000 81688
Fri Feb 10 00:00:00 GMT 2017 kylebellu Eastern redbud Cercis canadensis Bud Burst 35.128600000000000 -89.982470000000000 81910
Tue Feb 21 00:00:00 GMT 2017 kylebellu Eastern redbud Cercis canadensis First Leaf 35.128600000000000 -89.982470000000000 81911
Fri Mar 03 00:00:00 GMT 2017 kylebellu Eastern redbud Cercis canadensis All Leaves Unfolded 35.128600000000000 -89.982470000000000 81912
Tue Mar 14 00:00:00 GMT 2017 kylebellu Eastern redbud Cercis canadensis First Flower 35.128600000000000 -89.982470000000000 81913
Wed Mar 29 00:00:00 GMT 2017 kylebellu Eastern redbud Cercis canadensis Full Flower 35.128600000000000 -89.982470000000000 81914
Sat Apr 29 00:00:00 GMT 2017 leisteda Eastern redbud Cercis canadensis First Leaf 40.449010000000000 -80.203160000000000 81921
Sat May 06 00:00:00 GMT 2017 leisteda Eastern redbud Cercis canadensis First Ripe Fruit 40.449010000000000 -80.203160000000000 81922
Thu May 04 00:00:00 GMT 2017 leisteda Eastern redbud Cercis canadensis All Leaves Unfolded 40.449010000000000 -80.203160000000000 81923
Thu May 04 00:00:00 GMT 2017 laurob_St._John's_University__reporter13 Eastern redbud Cercis canadensis All Leaves Unfolded 40.721400000000000 -73.793200000000000 82112
Tue May 09 00:00:00 GMT 2017 laurob_St._John's_University__reporter13 Eastern redbud Cercis canadensis Leaves Unfolding (Late) 40.718884000000000 -73.797234000000000 82113
Tue May 09 00:00:00 GMT 2017 laurob_St._John's_University__reporter13 Eastern redbud Cercis canadensis Leaves Changing Color (Early) 40.718884000000000 -73.797234000000000 82114
Tue May 09 00:00:00 GMT 2017 laurob_St._John's_University__reporter13 Eastern redbud Cercis canadensis Leaves Dropping (None) 40.718884000000000 -73.797234000000000 82115
Tue May 09 00:00:00 GMT 2017 laurob_St._John's_University__reporter13 Eastern redbud Cercis canadensis Flowers (Early) 40.718884000000000 -73.797234000000000 82116
Tue May 09 00:00:00 GMT 2017 laurob_St._John's_University__reporter13 Eastern redbud Cercis canadensis Fruit (None) 40.718884000000000 -73.797234000000000 82117

*All downloadable materials require the free Adobe Reader.